PWSweather.com
Personal Weather Stations
Station Observations
PWSTHORN2
Thornton, Nh Usa, Thornton, NH 03285

Thornton, Nh UsaThornton, NH 03285

Lat: 43.8870699, Lon: -71.6632763

Elevation: 640

Station Type: Ambient WS 2080

High Low Average
Temperature 58.3°F14.6°C 39.4°F4.1°C 47.0°F8.3°C
Dew Point 52.1°F11.2°C 33.7°F0.9°C 41.1°F5.1°C
Winds 15.9 mph 25.6 kmh Calm Calm 4.0 mph S6.4 kmh S
Wind Gusts 24.4 mph39.3 kmh -- 9.0 mph14.5 kmh
Humidity 80% 80% 80%
Pressure 29.38 in994.9 mb 29.32 in992.9 mb -
Precipitation 0.00 in0.0 mm - -
Hour Temp Dew Point Humidity Winds Wind Gusts Pressure Precip Precip Rate Daily Precip Total
12:00 AM 41.4°F5.2°C 35.7°F2.1°C 80% Calm Calm 3.1 mph5.0 kmh 29.39 in995.3 mb 0.00 in0.0 mm 0.00 in0.0 mm 0.00 in0.0 mm
12:05 AM 41.4°F5.2°C 35.7°F2.1°C 80% Calm Calm 2.2 mph3.5 kmh 29.38 in994.9 mb 0.00 in0.0 mm 0.00 in0.0 mm 0.00 in0.0 mm
12:10 AM 41.4°F5.2°C 35.7°F2.1°C 80% 0.7 mph SW1.1 kmh SW 2.2 mph3.5 kmh 29.38 in994.9 mb 0.00 in0.0 mm 0.00 in0.0 mm 0.00 in0.0 mm
12:15 AM 41.4°F5.2°C 35.7°F2.1°C 80% 0.7 mph SW1.1 kmh SW 2.2 mph3.5 kmh 29.38 in994.9 mb 0.00 in0.0 mm 0.00 in0.0 mm 0.00 in0.0 mm
12:20 AM 41.4°F5.2°C 35.7°F2.1°C 80% Calm Calm 2.2 mph3.5 kmh 29.38 in994.9 mb 0.00 in0.0 mm 0.00 in0.0 mm 0.00 in0.0 mm
12:25 AM 41.4°F5.2°C 35.7°F2.1°C 80% 0.7 mph SW1.1 kmh SW 2.2 mph3.5 kmh 29.38 in994.9 mb 0.00 in0.0 mm 0.00 in0.0 mm 0.00 in0.0 mm
12:30 AM 41.2°F5.1°C 35.5°F1.9°C 80% 0.7 mph SW1.1 kmh SW 3.1 mph5.0 kmh 29.37 in994.6 mb 0.00 in0.0 mm 0.00 in0.0 mm 0.00 in0.0 mm
12:35 AM 41.2°F5.1°C 35.5°F1.9°C 80% 0.7 mph SW1.1 kmh SW 3.1 mph5.0 kmh 29.37 in994.6 mb 0.00 in0.0 mm 0.00 in0.0 mm 0.00 in0.0 mm
12:40 AM 41.4°F5.2°C 35.7°F2.1°C 80% 0.7 mph SW1.1 kmh SW 3.1 mph5.0 kmh 29.38 in994.9 mb 0.00 in0.0 mm 0.00 in0.0 mm 0.00 in0.0 mm
12:45 AM 41.4°F5.2°C 35.7°F2.1°C 80% 0.7 mph SW1.1 kmh SW 2.2 mph3.5 kmh 29.38 in994.9 mb 0.00 in0.0 mm 0.00 in0.0 mm 0.00 in0.0 mm
12:50 AM 41.2°F5.1°C 35.5°F1.9°C 80% Calm Calm 3.8 mph6.1 kmh 29.37 in994.6 mb 0.00 in0.0 mm 0.00 in0.0 mm 0.00 in0.0 mm
12:55 AM 41.2°F5.1°C 35.5°F1.9°C 80% 0.7 mph SW1.1 kmh SW 3.8 mph6.1 kmh 29.37 in994.6 mb 0.00 in0.0 mm 0.00 in0.0 mm 0.00 in0.0 mm
01:00 AM 41.2°F5.1°C 35.5°F1.9°C 80% 0.7 mph SW1.1 kmh SW 2.2 mph3.5 kmh 29.37 in994.6 mb 0.00 in0.0 mm 0.00 in0.0 mm 0.00 in0.0 mm
01:05 AM 41.0°F5.0°C 35.3°F1.8°C 80% 1.6 mph SW2.6 kmh SW 2.2 mph3.5 kmh 29.37 in994.6 mb 0.00 in0.0 mm 0.00 in0.0 mm 0.00 in0.0 mm
01:10 AM 41.0°F5.0°C 35.3°F1.8°C 80% 0.7 mph SW1.1 kmh SW 2.2 mph3.5 kmh 29.36 in994.2 mb 0.00 in0.0 mm 0.00 in0.0 mm 0.00 in0.0 mm
01:15 AM 41.0°F5.0°C 35.3°F1.8°C 80% Calm Calm 3.1 mph5.0 kmh 29.36 in994.2 mb 0.00 in0.0 mm 0.00 in0.0 mm 0.00 in0.0 mm
01:20 AM 41.0°F5.0°C 35.3°F1.8°C 80% Calm Calm 3.1 mph5.0 kmh 29.36 in994.2 mb 0.00 in0.0 mm 0.00 in0.0 mm 0.00 in0.0 mm
01:25 AM 41.0°F5.0°C 35.3°F1.8°C 80% Calm Calm 2.2 mph3.5 kmh 29.36 in994.2 mb 0.00 in0.0 mm 0.00 in0.0 mm 0.00 in0.0 mm
01:30 AM 41.0°F5.0°C 35.3°F1.8°C 80% Calm Calm 1.6 mph2.6 kmh 29.36 in994.2 mb 0.00 in0.0 mm 0.00 in0.0 mm 0.00 in0.0 mm
01:35 AM 40.8°F4.9°C 35.1°F1.7°C 80% 0.7 mph SW1.1 kmh SW 1.6 mph2.6 kmh 29.36 in994.2 mb 0.00 in0.0 mm 0.00 in0.0 mm 0.00 in0.0 mm
01:40 AM 40.8°F4.9°C 35.1°F1.7°C 80% Calm Calm 1.6 mph2.6 kmh 29.36 in994.2 mb 0.00 in0.0 mm 0.00 in0.0 mm 0.00 in0.0 mm
01:45 AM 40.8°F4.9°C 35.1°F1.7°C 80% Calm Calm 1.6 mph2.6 kmh 29.36 in994.2 mb 0.00 in0.0 mm 0.00 in0.0 mm 0.00 in0.0 mm
01:50 AM 40.8°F4.9°C 35.1°F1.7°C 80% Calm Calm 0.7 mph1.1 kmh 29.36 in994.2 mb 0.00 in0.0 mm 0.00 in0.0 mm 0.00 in0.0 mm
01:55 AM 40.6°F4.8°C 35.0°F1.7°C 80% Calm Calm -- 29.36 in994.2 mb 0.00 in0.0 mm 0.00 in0.0 mm 0.00 in0.0 mm
02:00 AM 40.6°F4.8°C 35.0°F1.7°C 80% Calm Calm -- 29.36 in994.2 mb 0.00 in0.0 mm 0.00 in0.0 mm 0.00 in0.0 mm
02:05 AM 40.8°F4.9°C 35.1°F1.7°C 80% Calm Calm -- 29.36 in994.2 mb 0.00 in0.0 mm 0.00 in0.0 mm 0.00 in0.0 mm
02:10 AM 40.8°F4.9°C 35.1°F1.7°C 80% Calm Calm 0.7 mph1.1 kmh 29.36 in994.2 mb 0.00 in0.0 mm 0.00 in0.0 mm 0.00 in0.0 mm
02:15 AM 40.8°F4.9°C 35.1°F1.7°C 80% Calm Calm 0.7 mph1.1 kmh 29.36 in994.2 mb 0.00 in0.0 mm 0.00 in0.0 mm 0.00 in0.0 mm
02:20 AM 40.6°F4.8°C 35.0°F1.7°C 80% Calm Calm 0.7 mph1.1 kmh 29.36 in994.2 mb 0.00 in0.0 mm 0.00 in0.0 mm 0.00 in0.0 mm
02:25 AM 40.6°F4.8°C 35.0°F1.7°C 80% Calm Calm 0.7 mph1.1 kmh 29.36 in994.2 mb 0.00 in0.0 mm 0.00 in0.0 mm 0.00 in0.0 mm
02:30 AM 40.6°F4.8°C 35.0°F1.7°C 80% Calm Calm 0.7 mph1.1 kmh 29.35 in993.9 mb 0.00 in0.0 mm 0.00 in0.0 mm 0.00 in0.0 mm
02:35 AM 40.6°F4.8°C 35.0°F1.7°C 80% Calm Calm -- 29.35 in993.9 mb 0.00 in0.0 mm 0.00 in0.0 mm 0.00 in0.0 mm
02:40 AM 40.6°F4.8°C 35.0°F1.7°C 80% Calm Calm 0.7 mph1.1 kmh 29.35 in993.9 mb 0.00 in0.0 mm 0.00 in0.0 mm 0.00 in0.0 mm
02:45 AM 40.6°F4.8°C 35.0°F1.7°C 80% 0.7 mph SW1.1 kmh SW 2.2 mph3.5 kmh 29.35 in993.9 mb 0.00 in0.0 mm 0.00 in0.0 mm 0.00 in0.0 mm
02:50 AM 40.6°F4.8°C 35.0°F1.7°C 80% 1.6 mph SW2.6 kmh SW 2.2 mph3.5 kmh 29.35 in993.9 mb 0.00 in0.0 mm 0.00 in0.0 mm 0.00 in0.0 mm
02:55 AM 40.6°F4.8°C 35.0°F1.7°C 80% 0.7 mph SW1.1 kmh SW 2.2 mph3.5 kmh 29.34 in993.6 mb 0.00 in0.0 mm 0.00 in0.0 mm 0.00 in0.0 mm
03:00 AM 40.5°F4.7°C 34.8°F1.6°C 80% Calm Calm 2.2 mph3.5 kmh 29.35 in993.9 mb 0.00 in0.0 mm 0.00 in0.0 mm 0.00 in0.0 mm
03:05 AM 40.5°F4.7°C 34.8°F1.6°C 80% Calm Calm 2.2 mph3.5 kmh 29.34 in993.6 mb 0.00 in0.0 mm 0.00 in0.0 mm 0.00 in0.0 mm
03:10 AM 40.5°F4.7°C 34.8°F1.6°C 80% Calm Calm 1.6 mph2.6 kmh 29.34 in993.6 mb 0.00 in0.0 mm 0.00 in0.0 mm 0.00 in0.0 mm
03:15 AM 40.5°F4.7°C 34.8°F1.6°C 80% Calm Calm 0.7 mph1.1 kmh 29.34 in993.6 mb 0.00 in0.0 mm 0.00 in0.0 mm 0.00 in0.0 mm
03:20 AM 40.5°F4.7°C 34.8°F1.6°C 80% Calm Calm 0.7 mph1.1 kmh 29.35 in993.9 mb 0.00 in0.0 mm 0.00 in0.0 mm 0.00 in0.0 mm
03:25 AM 40.5°F4.7°C 34.8°F1.6°C 80% Calm Calm 1.6 mph2.6 kmh 29.34 in993.6 mb 0.00 in0.0 mm 0.00 in0.0 mm 0.00 in0.0 mm
03:30 AM 40.5°F4.7°C 34.8°F1.6°C 80% 0.7 mph SW1.1 kmh SW 2.2 mph3.5 kmh 29.34 in993.6 mb 0.00 in0.0 mm 0.00 in0.0 mm 0.00 in0.0 mm
03:35 AM 40.3°F4.6°C 34.6°F1.4°C 80% Calm Calm 2.2 mph3.5 kmh 29.34 in993.6 mb 0.00 in0.0 mm 0.00 in0.0 mm 0.00 in0.0 mm
03:40 AM 40.3°F4.6°C 34.6°F1.4°C 80% 1.6 mph SW2.6 kmh SW 2.2 mph3.5 kmh 29.34 in993.6 mb 0.00 in0.0 mm 0.00 in0.0 mm 0.00 in0.0 mm
03:45 AM 40.3°F4.6°C 34.6°F1.4°C 80% Calm Calm 2.2 mph3.5 kmh 29.34 in993.6 mb 0.00 in0.0 mm 0.00 in0.0 mm 0.00 in0.0 mm
03:50 AM 40.1°F4.5°C 34.4°F1.3°C 80% Calm Calm 2.2 mph3.5 kmh 29.34 in993.6 mb 0.00 in0.0 mm 0.00 in0.0 mm 0.00 in0.0 mm
03:55 AM 40.1°F4.5°C 34.4°F1.3°C 80% Calm Calm 1.6 mph2.6 kmh 29.34 in993.6 mb 0.00 in0.0 mm 0.00 in0.0 mm 0.00 in0.0 mm
04:00 AM 40.1°F4.5°C 34.4°F1.3°C 80% Calm Calm 1.6 mph2.6 kmh 29.34 in993.6 mb 0.00 in0.0 mm 0.00 in0.0 mm 0.00 in0.0 mm
04:05 AM 40.1°F4.5°C 34.4°F1.3°C 80% 0.7 mph SW1.1 kmh SW 2.2 mph3.5 kmh 29.34 in993.6 mb 0.00 in0.0 mm 0.00 in0.0 mm 0.00 in0.0 mm
04:10 AM 40.1°F4.5°C 34.4°F1.3°C 80% 0.7 mph SW1.1 kmh SW 2.2 mph3.5 kmh 29.34 in993.6 mb 0.00 in0.0 mm 0.00 in0.0 mm 0.00 in0.0 mm
04:15 AM 40.1°F4.5°C 34.4°F1.3°C 80% Calm Calm 2.2 mph3.5 kmh 29.34 in993.6 mb 0.00 in0.0 mm 0.00 in0.0 mm 0.00 in0.0 mm
04:20 AM 39.9°F4.4°C 34.3°F1.3°C 80% 0.7 mph SW1.1 kmh SW 2.2 mph3.5 kmh 29.34 in993.6 mb 0.00 in0.0 mm 0.00 in0.0 mm 0.00 in0.0 mm
04:25 AM 39.9°F4.4°C 34.3°F1.3°C 80% Calm Calm 2.2 mph3.5 kmh 29.33 in993.2 mb 0.00 in0.0 mm 0.00 in0.0 mm 0.00 in0.0 mm
04:30 AM 39.9°F4.4°C 34.3°F1.3°C 80% 0.7 mph SW1.1 kmh SW 1.6 mph2.6 kmh 29.33 in993.2 mb 0.00 in0.0 mm 0.00 in0.0 mm 0.00 in0.0 mm
04:35 AM 39.9°F4.4°C 34.3°F1.3°C 80% 0.7 mph SW1.1 kmh SW 1.6 mph2.6 kmh 29.34 in993.6 mb 0.00 in0.0 mm 0.00 in0.0 mm 0.00 in0.0 mm
04:40 AM 39.9°F4.4°C 34.3°F1.3°C 80% Calm Calm 1.6 mph2.6 kmh 29.33 in993.2 mb 0.00 in0.0 mm 0.00 in0.0 mm 0.00 in0.0 mm
04:45 AM 39.9°F4.4°C 34.3°F1.3°C 80% 0.7 mph SW1.1 kmh SW 1.6 mph2.6 kmh 29.34 in993.6 mb 0.00 in0.0 mm 0.00 in0.0 mm 0.00 in0.0 mm
04:50 AM 39.9°F4.4°C 34.3°F1.3°C 80% Calm Calm 1.6 mph2.6 kmh 29.33 in993.2 mb 0.00 in0.0 mm 0.00 in0.0 mm 0.00 in0.0 mm
04:55 AM 40.1°F4.5°C 34.4°F1.3°C 80% Calm Calm 1.6 mph2.6 kmh 29.34 in993.6 mb 0.00 in0.0 mm 0.00 in0.0 mm 0.00 in0.0 mm
05:00 AM 39.9°F4.4°C 34.3°F1.3°C 80% Calm Calm 1.6 mph2.6 kmh 29.34 in993.6 mb 0.00 in0.0 mm 0.00 in0.0 mm 0.00 in0.0 mm
05:05 AM 39.7°F4.3°C 34.1°F1.2°C 80% 0.7 mph SW1.1 kmh SW 1.6 mph2.6 kmh 29.34 in993.6 mb 0.00 in0.0 mm 0.00 in0.0 mm 0.00 in0.0 mm
05:10 AM 39.7°F4.3°C 34.1°F1.2°C 80% Calm Calm 2.2 mph3.5 kmh 29.34 in993.6 mb 0.00 in0.0 mm 0.00 in0.0 mm 0.00 in0.0 mm
05:15 AM 39.6°F4.2°C 33.9°F1.1°C 80% 0.7 mph SW1.1 kmh SW 2.2 mph3.5 kmh 29.34 in993.6 mb 0.00 in0.0 mm 0.00 in0.0 mm 0.00 in0.0 mm
05:20 AM 39.6°F4.2°C 33.9°F1.1°C 80% 0.7 mph SW1.1 kmh SW 1.6 mph2.6 kmh 29.33 in993.2 mb 0.00 in0.0 mm 0.00 in0.0 mm 0.00 in0.0 mm
05:25 AM 39.6°F4.2°C 33.9°F1.1°C 80% 0.7 mph SW1.1 kmh SW 1.6 mph2.6 kmh 29.33 in993.2 mb 0.00 in0.0 mm 0.00 in0.0 mm 0.00 in0.0 mm
05:30 AM 39.4°F4.1°C 33.7°F0.9°C 80% Calm Calm 1.6 mph2.6 kmh 29.33 in993.2 mb 0.00 in0.0 mm 0.00 in0.0 mm 0.00 in0.0 mm
05:35 AM 39.4°F4.1°C 33.7°F0.9°C 80% Calm Calm 1.6 mph2.6 kmh 29.34 in993.6 mb 0.00 in0.0 mm 0.00 in0.0 mm 0.00 in0.0 mm
05:40 AM 39.6°F4.2°C 33.9°F1.1°C 80% Calm Calm 1.6 mph2.6 kmh 29.34 in993.6 mb 0.00 in0.0 mm 0.00 in0.0 mm 0.00 in0.0 mm
05:45 AM 39.6°F4.2°C 33.9°F1.1°C 80% Calm Calm -- 29.33 in993.2 mb 0.00 in0.0 mm 0.00 in0.0 mm 0.00 in0.0 mm
05:50 AM 39.6°F4.2°C 33.9°F1.1°C 80% Calm Calm -- 29.33 in993.2 mb 0.00 in0.0 mm 0.00 in0.0 mm 0.00 in0.0 mm
05:55 AM 39.6°F4.2°C 33.9°F1.1°C 80% Calm Calm -- 29.33 in993.2 mb 0.00 in0.0 mm 0.00 in0.0 mm 0.00 in0.0 mm
06:00 AM 39.7°F4.3°C 34.1°F1.2°C 80% Calm Calm 2.2 mph3.5 kmh 29.34 in993.6 mb 0.00 in0.0 mm 0.00 in0.0 mm 0.00 in0.0 mm
06:05 AM 39.7°F4.3°C 34.1°F1.2°C 80% Calm Calm 2.2 mph3.5 kmh 29.34 in993.6 mb 0.00 in0.0 mm 0.00 in0.0 mm 0.00 in0.0 mm
06:10 AM 39.9°F4.4°C 34.3°F1.3°C 80% 1.6 mph SW2.6 kmh SW 3.1 mph5.0 kmh 29.34 in993.6 mb 0.00 in0.0 mm 0.00 in0.0 mm 0.00 in0.0 mm
06:15 AM 40.1°F4.5°C 34.4°F1.3°C 80% Calm Calm 3.1 mph5.0 kmh 29.34 in993.6 mb 0.00 in0.0 mm 0.00 in0.0 mm 0.00 in0.0 mm
06:20 AM 40.5°F4.7°C 34.8°F1.6°C 80% 0.7 mph SW1.1 kmh SW 3.1 mph5.0 kmh 29.34 in993.6 mb 0.00 in0.0 mm 0.00 in0.0 mm 0.00 in0.0 mm
06:25 AM 40.5°F4.7°C 34.8°F1.6°C 80% 2.2 mph SW3.5 kmh SW 3.1 mph5.0 kmh 29.33 in993.2 mb 0.00 in0.0 mm 0.00 in0.0 mm 0.00 in0.0 mm
06:30 AM 40.6°F4.8°C 35.0°F1.7°C 80% Calm Calm 3.1 mph5.0 kmh 29.34 in993.6 mb 0.00 in0.0 mm 0.00 in0.0 mm 0.00 in0.0 mm
06:35 AM 40.8°F4.9°C 35.1°F1.7°C 80% Calm Calm 3.1 mph5.0 kmh 29.34 in993.6 mb 0.00 in0.0 mm 0.00 in0.0 mm 0.00 in0.0 mm
06:40 AM 41.0°F5.0°C 35.3°F1.8°C 80% Calm Calm 3.1 mph5.0 kmh 29.34 in993.6 mb 0.00 in0.0 mm 0.00 in0.0 mm 0.00 in0.0 mm
06:45 AM 41.0°F5.0°C 35.3°F1.8°C 80% 1.6 mph SW2.6 kmh SW 3.1 mph5.0 kmh 29.34 in993.6 mb 0.00 in0.0 mm 0.00 in0.0 mm 0.00 in0.0 mm
06:50 AM 41.2°F5.1°C 35.5°F1.9°C 80% Calm Calm 3.1 mph5.0 kmh 29.34 in993.6 mb 0.00 in0.0 mm 0.00 in0.0 mm 0.00 in0.0 mm
06:55 AM 41.4°F5.2°C 35.7°F2.1°C 80% 5.4 mph SW8.7 kmh SW 9.2 mph14.8 kmh 29.34 in993.6 mb 0.00 in0.0 mm 0.00 in0.0 mm 0.00 in0.0 mm
07:00 AM 41.9°F5.5°C 36.2°F2.3°C 80% 4.5 mph WSW7.2 kmh WSW 9.2 mph14.8 kmh 29.34 in993.6 mb 0.00 in0.0 mm 0.00 in0.0 mm 0.00 in0.0 mm
07:05 AM 42.6°F5.9°C 36.9°F2.7°C 80% 5.4 mph W8.7 kmh W 13.0 mph20.9 kmh 29.34 in993.6 mb 0.00 in0.0 mm 0.00 in0.0 mm 0.00 in0.0 mm
07:10 AM 43.2°F6.2°C 37.4°F3.0°C 80% 2.2 mph W3.5 kmh W 13.0 mph20.9 kmh 29.34 in993.6 mb 0.00 in0.0 mm 0.00 in0.0 mm 0.00 in0.0 mm
07:15 AM 43.5°F6.4°C 37.8°F3.2°C 80% 6.9 mph WSW11.1 kmh WSW 10.7 mph17.2 kmh 29.34 in993.6 mb 0.00 in0.0 mm 0.00 in0.0 mm 0.00 in0.0 mm
07:20 AM 44.2°F6.8°C 38.5°F3.6°C 80% 9.2 mph SW14.8 kmh SW 15.2 mph24.5 kmh 29.34 in993.6 mb 0.00 in0.0 mm 0.00 in0.0 mm 0.00 in0.0 mm
07:25 AM 44.4°F6.9°C 38.6°F3.7°C 80% 6.9 mph SW11.1 kmh SW 15.2 mph24.5 kmh 29.34 in993.6 mb 0.00 in0.0 mm 0.00 in0.0 mm 0.00 in0.0 mm
07:30 AM 44.8°F7.1°C 39.0°F3.9°C 80% 3.8 mph W6.1 kmh W 15.2 mph24.5 kmh 29.35 in993.9 mb 0.00 in0.0 mm 0.00 in0.0 mm 0.00 in0.0 mm
07:35 AM 44.8°F7.1°C 39.0°F3.9°C 80% 7.6 mph NW12.2 kmh NW 17.4 mph28.0 kmh 29.34 in993.6 mb 0.00 in0.0 mm 0.00 in0.0 mm 0.00 in0.0 mm
07:40 AM 45.0°F7.2°C 39.2°F4.0°C 80% 6.0 mph NW9.7 kmh NW 18.3 mph29.5 kmh 29.34 in993.6 mb 0.00 in0.0 mm 0.00 in0.0 mm 0.00 in0.0 mm
07:45 AM 45.1°F7.3°C 39.3°F4.1°C 80% 11.4 mph NW18.3 kmh NW 18.3 mph29.5 kmh 29.34 in993.6 mb 0.00 in0.0 mm 0.00 in0.0 mm 0.00 in0.0 mm
07:50 AM 45.1°F7.3°C 39.3°F4.1°C 80% 5.4 mph NW8.7 kmh NW 15.2 mph24.5 kmh 29.35 in993.9 mb 0.00 in0.0 mm 0.00 in0.0 mm 0.00 in0.0 mm
07:55 AM 45.3°F7.4°C 39.5°F4.2°C 80% 4.5 mph NW7.2 kmh NW 15.2 mph24.5 kmh 29.34 in993.6 mb 0.00 in0.0 mm 0.00 in0.0 mm 0.00 in0.0 mm
08:00 AM 45.5°F7.5°C 39.7°F4.3°C 80% 5.4 mph NW8.7 kmh NW 9.8 mph15.8 kmh 29.35 in993.9 mb 0.00 in0.0 mm 0.00 in0.0 mm 0.00 in0.0 mm
08:05 AM 45.7°F7.6°C 39.9°F4.4°C 80% 10.7 mph NW17.2 kmh NW 15.9 mph25.6 kmh 29.35 in993.9 mb 0.00 in0.0 mm 0.00 in0.0 mm 0.00 in0.0 mm
08:10 AM 45.9°F7.7°C 40.0°F4.4°C 80% 5.4 mph NW8.7 kmh NW 15.9 mph25.6 kmh 29.35 in993.9 mb 0.00 in0.0 mm 0.00 in0.0 mm 0.00 in0.0 mm
08:15 AM 45.9°F7.7°C 40.0°F4.4°C 80% 3.8 mph WNW6.1 kmh WNW 14.5 mph23.3 kmh 29.35 in993.9 mb 0.00 in0.0 mm 0.00 in0.0 mm 0.00 in0.0 mm
08:20 AM 46.2°F7.9°C 40.4°F4.7°C 80% 8.3 mph WNW13.4 kmh WNW 14.5 mph23.3 kmh 29.35 in993.9 mb 0.00 in0.0 mm 0.00 in0.0 mm 0.00 in0.0 mm
08:25 AM 47.1°F8.4°C 41.3°F5.2°C 80% 6.9 mph WNW11.1 kmh WNW 14.5 mph23.3 kmh 29.35 in993.9 mb 0.00 in0.0 mm 0.00 in0.0 mm 0.00 in0.0 mm
08:30 AM 47.1°F8.4°C 41.3°F5.2°C 80% 6.9 mph NW11.1 kmh NW 13.6 mph21.9 kmh 29.35 in993.9 mb 0.00 in0.0 mm 0.00 in0.0 mm 0.00 in0.0 mm
08:35 AM 46.9°F8.3°C 41.1°F5.1°C 80% 6.0 mph W9.7 kmh W 15.9 mph25.6 kmh 29.36 in994.2 mb 0.00 in0.0 mm 0.00 in0.0 mm 0.00 in0.0 mm
08:40 AM 47.1°F8.4°C 41.3°F5.2°C 80% 8.3 mph W13.4 kmh W 15.9 mph25.6 kmh 29.35 in993.9 mb 0.00 in0.0 mm 0.00 in0.0 mm 0.00 in0.0 mm
08:45 AM 46.9°F8.3°C 41.1°F5.1°C 80% 7.6 mph W12.2 kmh W 13.6 mph21.9 kmh 29.35 in993.9 mb 0.00 in0.0 mm 0.00 in0.0 mm 0.00 in0.0 mm
08:50 AM 46.9°F8.3°C 41.1°F5.1°C 80% 6.0 mph W9.7 kmh W 13.6 mph21.9 kmh 29.35 in993.9 mb 0.00 in0.0 mm 0.00 in0.0 mm 0.00 in0.0 mm
08:55 AM 46.9°F8.3°C 41.1°F5.1°C 80% 9.2 mph W14.8 kmh W 13.0 mph20.9 kmh 29.35 in993.9 mb 0.00 in0.0 mm 0.00 in0.0 mm 0.00 in0.0 mm
09:00 AM 46.6°F8.1°C 40.7°F4.8°C 80% 5.4 mph W8.7 kmh W 13.6 mph21.9 kmh 29.36 in994.2 mb 0.00 in0.0 mm 0.00 in0.0 mm 0.00 in0.0 mm
09:05 AM 46.6°F8.1°C 40.7°F4.8°C 80% 6.9 mph W11.1 kmh W 13.6 mph21.9 kmh 29.35 in993.9 mb 0.00 in0.0 mm 0.00 in0.0 mm 0.00 in0.0 mm
09:10 AM 46.6°F8.1°C 40.7°F4.8°C 80% 6.0 mph WNW9.7 kmh WNW 18.3 mph29.5 kmh 29.35 in993.9 mb 0.00 in0.0 mm 0.00 in0.0 mm 0.00 in0.0 mm
09:15 AM 46.8°F8.2°C 40.9°F4.9°C 80% 9.8 mph NW15.8 kmh NW 18.3 mph29.5 kmh 29.35 in993.9 mb 0.00 in0.0 mm 0.00 in0.0 mm 0.00 in0.0 mm
09:20 AM 47.1°F8.4°C 41.3°F5.2°C 80% 9.2 mph WNW14.8 kmh WNW 17.4 mph28.0 kmh 29.35 in993.9 mb 0.00 in0.0 mm 0.00 in0.0 mm 0.00 in0.0 mm
09:25 AM 47.3°F8.5°C 41.4°F5.2°C 80% 9.8 mph SW15.8 kmh SW 18.3 mph29.5 kmh 29.34 in993.6 mb 0.00 in0.0 mm 0.00 in0.0 mm 0.00 in0.0 mm
09:30 AM 48.0°F8.9°C 42.2°F5.7°C 80% 7.6 mph SW12.2 kmh SW 18.3 mph29.5 kmh 29.34 in993.6 mb 0.00 in0.0 mm 0.00 in0.0 mm 0.00 in0.0 mm
09:35 AM 48.0°F8.9°C 42.2°F5.7°C 80% 8.3 mph SW13.4 kmh SW 21.3 mph34.3 kmh 29.34 in993.6 mb 0.00 in0.0 mm 0.00 in0.0 mm 0.00 in0.0 mm
09:40 AM 48.0°F8.9°C 42.2°F5.7°C 80% 12.1 mph SW19.5 kmh SW 21.3 mph34.3 kmh 29.35 in993.9 mb 0.00 in0.0 mm 0.00 in0.0 mm 0.00 in0.0 mm
09:45 AM 47.8°F8.8°C 42.0°F5.6°C 80% 12.1 mph SSW19.5 kmh SSW 19.7 mph31.7 kmh 29.35 in993.9 mb 0.00 in0.0 mm 0.00 in0.0 mm 0.00 in0.0 mm
09:50 AM 47.7°F8.7°C 41.8°F5.4°C 80% 6.9 mph S11.1 kmh S 19.7 mph31.7 kmh 29.36 in994.2 mb 0.00 in0.0 mm 0.00 in0.0 mm 0.00 in0.0 mm
09:55 AM 48.2°F9.0°C 42.3°F5.7°C 80% 10.7 mph SW17.2 kmh SW 16.8 mph27.0 kmh 29.35 in993.9 mb 0.00 in0.0 mm 0.00 in0.0 mm 0.00 in0.0 mm
10:00 AM 48.6°F9.2°C 42.7°F5.9°C 80% 15.2 mph SW24.5 kmh SW 19.7 mph31.7 kmh 29.35 in993.9 mb 0.00 in0.0 mm 0.00 in0.0 mm 0.00 in0.0 mm
10:05 AM 48.4°F9.1°C 42.5°F5.8°C 80% 13.6 mph SW21.9 kmh SW 19.7 mph31.7 kmh 29.35 in993.9 mb 0.00 in0.0 mm 0.00 in0.0 mm 0.00 in0.0 mm
10:10 AM 48.0°F8.9°C 42.2°F5.7°C 80% 10.7 mph SSW17.2 kmh SSW 19.7 mph31.7 kmh 29.36 in994.2 mb 0.00 in0.0 mm 0.00 in0.0 mm 0.00 in0.0 mm
10:15 AM 48.4°F9.1°C 42.5°F5.8°C 80% 12.1 mph S19.5 kmh S 19.7 mph31.7 kmh 29.35 in993.9 mb 0.00 in0.0 mm 0.00 in0.0 mm 0.00 in0.0 mm
10:20 AM 48.4°F9.1°C 42.5°F5.8°C 80% 12.1 mph WSW19.5 kmh WSW 24.4 mph39.3 kmh 29.36 in994.2 mb 0.00 in0.0 mm 0.00 in0.0 mm 0.00 in0.0 mm
10:25 AM 48.0°F8.9°C 42.2°F5.7°C 80% 13.6 mph WSW21.9 kmh WSW 24.4 mph39.3 kmh 29.36 in994.2 mb 0.00 in0.0 mm 0.00 in0.0 mm 0.00 in0.0 mm
10:30 AM 47.5°F8.6°C 41.6°F5.3°C 80% 10.7 mph SSW17.2 kmh SSW 20.6 mph33.2 kmh 29.36 in994.2 mb 0.00 in0.0 mm 0.00 in0.0 mm 0.00 in0.0 mm
10:35 AM 47.3°F8.5°C 41.4°F5.2°C 80% 9.8 mph SW15.8 kmh SW 20.6 mph33.2 kmh 29.36 in994.2 mb 0.00 in0.0 mm 0.00 in0.0 mm 0.00 in0.0 mm
10:40 AM 47.1°F8.4°C 41.3°F5.2°C 80% 11.4 mph WSW18.3 kmh WSW 19.0 mph30.6 kmh 29.36 in994.2 mb 0.00 in0.0 mm 0.00 in0.0 mm 0.00 in0.0 mm
10:45 AM 46.9°F8.3°C 41.1°F5.1°C 80% 6.0 mph WSW9.7 kmh WSW 19.0 mph30.6 kmh 29.36 in994.2 mb 0.00 in0.0 mm 0.00 in0.0 mm 0.00 in0.0 mm
10:50 AM 46.9°F8.3°C 41.1°F5.1°C 80% 11.4 mph WNW18.3 kmh WNW 19.0 mph30.6 kmh 29.35 in993.9 mb 0.00 in0.0 mm 0.00 in0.0 mm 0.00 in0.0 mm
10:55 AM 47.1°F8.4°C 41.3°F5.2°C 80% 6.9 mph WNW11.1 kmh WNW 15.2 mph24.5 kmh 29.35 in993.9 mb 0.00 in0.0 mm 0.00 in0.0 mm 0.00 in0.0 mm
11:00 AM 47.5°F8.6°C 41.6°F5.3°C 80% 8.3 mph W13.4 kmh W 15.2 mph24.5 kmh 29.36 in994.2 mb 0.00 in0.0 mm 0.00 in0.0 mm 0.00 in0.0 mm
11:05 AM 47.8°F8.8°C 42.0°F5.6°C 80% 8.3 mph W13.4 kmh W 14.5 mph23.3 kmh 29.35 in993.9 mb 0.00 in0.0 mm 0.00 in0.0 mm 0.00 in0.0 mm
11:10 AM 48.6°F9.2°C 42.7°F5.9°C 80% 6.9 mph W11.1 kmh W 12.1 mph19.5 kmh 29.35 in993.9 mb 0.00 in0.0 mm 0.00 in0.0 mm 0.00 in0.0 mm
11:15 AM 49.1°F9.5°C 43.2°F6.2°C 80% 8.3 mph W13.4 kmh W 15.2 mph24.5 kmh 29.36 in994.2 mb 0.00 in0.0 mm 0.00 in0.0 mm 0.00 in0.0 mm
11:20 AM 49.5°F9.7°C 43.6°F6.4°C 80% 3.8 mph WSW6.1 kmh WSW 15.2 mph24.5 kmh 29.35 in993.9 mb 0.00 in0.0 mm 0.00 in0.0 mm 0.00 in0.0 mm
11:25 AM 49.8°F9.9°C 43.9°F6.6°C 80% 4.5 mph S7.2 kmh S 11.4 mph18.3 kmh 29.35 in993.9 mb 0.00 in0.0 mm 0.00 in0.0 mm 0.00 in0.0 mm
11:30 AM 49.8°F9.9°C 43.9°F6.6°C 80% 8.3 mph S13.4 kmh S 10.7 mph17.2 kmh 29.35 in993.9 mb 0.00 in0.0 mm 0.00 in0.0 mm 0.00 in0.0 mm
11:35 AM 49.3°F9.6°C 43.4°F6.3°C 80% 6.0 mph S9.7 kmh S 11.4 mph18.3 kmh 29.35 in993.9 mb 0.00 in0.0 mm 0.00 in0.0 mm 0.00 in0.0 mm
11:40 AM 49.1°F9.5°C 43.2°F6.2°C 80% 6.9 mph SSW11.1 kmh SSW 11.4 mph18.3 kmh 29.35 in993.9 mb 0.00 in0.0 mm 0.00 in0.0 mm 0.00 in0.0 mm
11:45 AM 48.9°F9.4°C 43.0°F6.1°C 80% 4.5 mph SW7.2 kmh SW 15.2 mph24.5 kmh 29.35 in993.9 mb 0.00 in0.0 mm 0.00 in0.0 mm 0.00 in0.0 mm
11:50 AM 48.4°F9.1°C 42.5°F5.8°C 80% 4.5 mph WSW7.2 kmh WSW 15.2 mph24.5 kmh 29.36 in994.2 mb 0.00 in0.0 mm 0.00 in0.0 mm 0.00 in0.0 mm
11:55 AM 48.2°F9.0°C 42.3°F5.7°C 80% 13.0 mph SW20.9 kmh SW 18.3 mph29.5 kmh 29.36 in994.2 mb 0.00 in0.0 mm 0.00 in0.0 mm 0.00 in0.0 mm
12:00 PM 48.4°F9.1°C 42.5°F5.8°C 80% 13.0 mph SE20.9 kmh SE 19.7 mph31.7 kmh 29.35 in993.9 mb 0.00 in0.0 mm 0.00 in0.0 mm 0.00 in0.0 mm
12:05 PM 48.7°F9.3°C 42.9°F6.1°C 80% 11.4 mph E18.3 kmh E 19.7 mph31.7 kmh 29.36 in994.2 mb 0.00 in0.0 mm 0.00 in0.0 mm 0.00 in0.0 mm
12:10 PM 48.7°F9.3°C 42.9°F6.1°C 80% 9.2 mph E14.8 kmh E 18.3 mph29.5 kmh 29.36 in994.2 mb 0.00 in0.0 mm 0.00 in0.0 mm 0.00 in0.0 mm
12:15 PM 48.9°F9.4°C 43.0°F6.1°C 80% 8.3 mph E13.4 kmh E 17.4 mph28.0 kmh 29.35 in993.9 mb 0.00 in0.0 mm 0.00 in0.0 mm 0.00 in0.0 mm
12:20 PM 48.9°F9.4°C 43.0°F6.1°C 80% 9.2 mph ENE14.8 kmh ENE 18.3 mph29.5 kmh 29.36 in994.2 mb 0.00 in0.0 mm 0.00 in0.0 mm 0.00 in0.0 mm
12:25 PM 49.1°F9.5°C 43.2°F6.2°C 80% 13.0 mph E20.9 kmh E 18.3 mph29.5 kmh 29.35 in993.9 mb 0.00 in0.0 mm 0.00 in0.0 mm 0.00 in0.0 mm
12:30 PM 49.6°F9.8°C 43.7°F6.5°C 80% 11.4 mph SE18.3 kmh SE 18.3 mph29.5 kmh 29.35 in993.9 mb 0.00 in0.0 mm 0.00 in0.0 mm 0.00 in0.0 mm
12:35 PM 50.9°F10.5°C 45.0°F7.2°C 80% 12.1 mph S19.5 kmh S 18.3 mph29.5 kmh 29.35 in993.9 mb 0.00 in0.0 mm 0.00 in0.0 mm 0.00 in0.0 mm
12:40 PM 51.4°F10.8°C 45.5°F7.5°C 80% 14.5 mph S23.3 kmh S 17.4 mph28.0 kmh 29.35 in993.9 mb 0.00 in0.0 mm 0.00 in0.0 mm 0.00 in0.0 mm
12:45 PM 51.3°F10.7°C 45.3°F7.4°C 80% 11.4 mph S18.3 kmh S 17.4 mph28.0 kmh 29.35 in993.9 mb 0.00 in0.0 mm 0.00 in0.0 mm 0.00 in0.0 mm
12:50 PM 51.1°F10.6°C 45.1°F7.3°C 80% 15.2 mph WSW24.5 kmh WSW 19.0 mph30.6 kmh 29.34 in993.6 mb 0.00 in0.0 mm 0.00 in0.0 mm 0.00 in0.0 mm
12:55 PM 50.9°F10.5°C 45.0°F7.2°C 80% 13.0 mph WNW20.9 kmh WNW 19.0 mph30.6 kmh 29.34 in993.6 mb 0.00 in0.0 mm 0.00 in0.0 mm 0.00 in0.0 mm
01:00 PM 50.9°F10.5°C 45.0°F7.2°C 80% 8.3 mph W13.4 kmh W 22.1 mph35.6 kmh 29.34 in993.6 mb 0.00 in0.0 mm 0.00 in0.0 mm 0.00 in0.0 mm
01:05 PM 51.4°F10.8°C 45.5°F7.5°C 80% 11.4 mph W18.3 kmh W 22.1 mph35.6 kmh 29.34 in993.6 mb 0.00 in0.0 mm 0.00 in0.0 mm 0.00 in0.0 mm
01:10 PM 51.1°F10.6°C 45.1°F7.3°C 80% 10.7 mph SW17.2 kmh SW 19.7 mph31.7 kmh 29.35 in993.9 mb 0.00 in0.0 mm 0.00 in0.0 mm 0.00 in0.0 mm
01:15 PM 50.9°F10.5°C 45.0°F7.2°C 80% 9.2 mph SSW14.8 kmh SSW 19.7 mph31.7 kmh 29.34 in993.6 mb 0.00 in0.0 mm 0.00 in0.0 mm 0.00 in0.0 mm
01:20 PM 50.5°F10.3°C 44.6°F7.0°C 80% 9.8 mph SSW15.8 kmh SSW 19.7 mph31.7 kmh 29.35 in993.9 mb 0.00 in0.0 mm 0.00 in0.0 mm 0.00 in0.0 mm
01:25 PM 50.5°F10.3°C 44.6°F7.0°C 80% 14.5 mph SSW23.3 kmh SSW 19.7 mph31.7 kmh 29.36 in994.2 mb 0.00 in0.0 mm 0.00 in0.0 mm 0.00 in0.0 mm
01:30 PM 50.4°F10.2°C 44.4°F6.9°C 80% 9.8 mph SSW15.8 kmh SSW 19.7 mph31.7 kmh 29.35 in993.9 mb 0.00 in0.0 mm 0.00 in0.0 mm 0.00 in0.0 mm
01:35 PM 50.7°F10.4°C 44.8°F7.1°C 80% 6.9 mph SW11.1 kmh SW 19.7 mph31.7 kmh 29.34 in993.6 mb 0.00 in0.0 mm 0.00 in0.0 mm 0.00 in0.0 mm
01:40 PM 51.4°F10.8°C 45.5°F7.5°C 80% 6.9 mph SW11.1 kmh SW 16.8 mph27.0 kmh 29.35 in993.9 mb 0.00 in0.0 mm 0.00 in0.0 mm 0.00 in0.0 mm
01:45 PM 52.0°F11.1°C 46.0°F7.8°C 80% 14.5 mph S23.3 kmh S 17.4 mph28.0 kmh 29.34 in993.6 mb 0.00 in0.0 mm 0.00 in0.0 mm 0.00 in0.0 mm
01:50 PM 52.5°F11.4°C 46.5°F8.1°C 80% 6.0 mph SE9.7 kmh SE 17.4 mph28.0 kmh 29.34 in993.6 mb 0.00 in0.0 mm 0.00 in0.0 mm 0.00 in0.0 mm
01:55 PM 52.7°F11.5°C 46.7°F8.2°C 80% 10.7 mph SSE17.2 kmh SSE 17.4 mph28.0 kmh 29.34 in993.6 mb 0.00 in0.0 mm 0.00 in0.0 mm 0.00 in0.0 mm
02:00 PM 52.3°F11.3°C 46.4°F8.0°C 80% 12.1 mph W19.5 kmh W 19.0 mph30.6 kmh 29.34 in993.6 mb 0.00 in0.0 mm 0.00 in0.0 mm 0.00 in0.0 mm
02:05 PM 52.3°F11.3°C 46.4°F8.0°C 80% 10.7 mph WNW17.2 kmh WNW 19.0 mph30.6 kmh 29.34 in993.6 mb 0.00 in0.0 mm 0.00 in0.0 mm 0.00 in0.0 mm
02:10 PM 52.2°F11.2°C 46.2°F7.9°C 80% 6.9 mph WNW11.1 kmh WNW 18.3 mph29.5 kmh 29.34 in993.6 mb 0.00 in0.0 mm 0.00 in0.0 mm 0.00 in0.0 mm
02:15 PM 52.0°F11.1°C 46.0°F7.8°C 80% 9.2 mph SW14.8 kmh SW 18.3 mph29.5 kmh 29.34 in993.6 mb 0.00 in0.0 mm 0.00 in0.0 mm 0.00 in0.0 mm
02:20 PM 51.3°F10.7°C 45.3°F7.4°C 80% 6.9 mph S11.1 kmh S 18.3 mph29.5 kmh 29.34 in993.6 mb 0.00 in0.0 mm 0.00 in0.0 mm 0.00 in0.0 mm
02:25 PM 51.1°F10.6°C 45.1°F7.3°C 80% 3.1 mph S5.0 kmh S 18.3 mph29.5 kmh 29.34 in993.6 mb 0.00 in0.0 mm 0.00 in0.0 mm 0.00 in0.0 mm
02:30 PM 51.1°F10.6°C 45.1°F7.3°C 80% 6.0 mph S9.7 kmh S 12.1 mph19.5 kmh 29.34 in993.6 mb 0.00 in0.0 mm 0.00 in0.0 mm 0.00 in0.0 mm
02:35 PM 50.7°F10.4°C 44.8°F7.1°C 80% 8.3 mph S13.4 kmh S 13.0 mph20.9 kmh 29.34 in993.6 mb 0.00 in0.0 mm 0.00 in0.0 mm 0.00 in0.0 mm
02:40 PM 50.7°F10.4°C 44.8°F7.1°C 80% 7.6 mph SSW12.2 kmh SSW 15.9 mph25.6 kmh 29.34 in993.6 mb 0.00 in0.0 mm 0.00 in0.0 mm 0.00 in0.0 mm
02:45 PM 50.5°F10.3°C 44.6°F7.0°C 80% 10.7 mph NW17.2 kmh NW 19.7 mph31.7 kmh 29.34 in993.6 mb 0.00 in0.0 mm 0.00 in0.0 mm 0.00 in0.0 mm
02:50 PM 51.1°F10.6°C 45.1°F7.3°C 80% 6.9 mph NW11.1 kmh NW 19.7 mph31.7 kmh 29.34 in993.6 mb 0.00 in0.0 mm 0.00 in0.0 mm 0.00 in0.0 mm
02:55 PM 52.2°F11.2°C 46.2°F7.9°C 80% 8.3 mph NW13.4 kmh NW 16.8 mph27.0 kmh 29.33 in993.2 mb 0.00 in0.0 mm 0.00 in0.0 mm 0.00 in0.0 mm
03:00 PM 53.1°F11.7°C 47.1°F8.4°C 80% 9.8 mph NW15.8 kmh NW 16.8 mph27.0 kmh 29.33 in993.2 mb 0.00 in0.0 mm 0.00 in0.0 mm 0.00 in0.0 mm
03:05 PM 53.8°F12.1°C 47.8°F8.8°C 80% 6.9 mph WNW11.1 kmh WNW 16.8 mph27.0 kmh 29.33 in993.2 mb 0.00 in0.0 mm 0.00 in0.0 mm 0.00 in0.0 mm
03:10 PM 53.8°F12.1°C 47.8°F8.8°C 80% 8.3 mph W13.4 kmh W 13.0 mph20.9 kmh 29.33 in993.2 mb 0.00 in0.0 mm 0.00 in0.0 mm 0.00 in0.0 mm
03:15 PM 53.4°F11.9°C 47.4°F8.6°C 80% 5.4 mph W8.7 kmh W 15.2 mph24.5 kmh 29.33 in993.2 mb 0.00 in0.0 mm 0.00 in0.0 mm 0.00 in0.0 mm
03:20 PM 53.4°F11.9°C 47.4°F8.6°C 80% 7.6 mph WSW12.2 kmh WSW 15.2 mph24.5 kmh 29.33 in993.2 mb 0.00 in0.0 mm 0.00 in0.0 mm 0.00 in0.0 mm
03:25 PM 53.4°F11.9°C 47.4°F8.6°C 80% 10.7 mph WSW17.2 kmh WSW 15.9 mph25.6 kmh 29.33 in993.2 mb 0.00 in0.0 mm 0.00 in0.0 mm 0.00 in0.0 mm
03:30 PM 53.1°F11.7°C 47.1°F8.4°C 80% 7.6 mph WSW12.2 kmh WSW 15.9 mph25.6 kmh 29.33 in993.2 mb 0.00 in0.0 mm 0.00 in0.0 mm 0.00 in0.0 mm
03:35 PM 53.1°F11.7°C 47.1°F8.4°C 80% 8.3 mph WSW13.4 kmh WSW 14.5 mph23.3 kmh 29.33 in993.2 mb 0.00 in0.0 mm 0.00 in0.0 mm 0.00 in0.0 mm
03:40 PM 52.9°F11.6°C 46.9°F8.3°C 80% 5.4 mph WSW8.7 kmh WSW 15.9 mph25.6 kmh 29.33 in993.2 mb 0.00 in0.0 mm 0.00 in0.0 mm 0.00 in0.0 mm
03:45 PM 52.9°F11.6°C 46.9°F8.3°C 80% 3.8 mph W6.1 kmh W 15.9 mph25.6 kmh 29.33 in993.2 mb 0.00 in0.0 mm 0.00 in0.0 mm 0.00 in0.0 mm
03:50 PM 52.9°F11.6°C 46.9°F8.3°C 80% 15.9 mph W25.6 kmh W 21.3 mph34.3 kmh 29.33 in993.2 mb 0.00 in0.0 mm 0.00 in0.0 mm 0.00 in0.0 mm
03:55 PM 52.5°F11.4°C 46.5°F8.1°C 80% 9.2 mph W14.8 kmh W 21.3 mph34.3 kmh 29.33 in993.2 mb 0.00 in0.0 mm 0.00 in0.0 mm 0.00 in0.0 mm
04:00 PM 52.3°F11.3°C 46.4°F8.0°C 80% 7.6 mph W12.2 kmh W 19.0 mph30.6 kmh 29.33 in993.2 mb 0.00 in0.0 mm 0.00 in0.0 mm 0.00 in0.0 mm
04:05 PM 52.3°F11.3°C 46.4°F8.0°C 80% 6.9 mph W11.1 kmh W 19.0 mph30.6 kmh 29.33 in993.2 mb 0.00 in0.0 mm 0.00 in0.0 mm 0.00 in0.0 mm
04:10 PM 52.7°F11.5°C 46.7°F8.2°C 80% 5.4 mph W8.7 kmh W 13.0 mph20.9 kmh 29.34 in993.6 mb 0.00 in0.0 mm 0.00 in0.0 mm 0.00 in0.0 mm
04:15 PM 52.9°F11.6°C 46.9°F8.3°C 80% 9.2 mph W14.8 kmh W 11.4 mph18.3 kmh 29.33 in993.2 mb 0.00 in0.0 mm 0.00 in0.0 mm 0.00 in0.0 mm
04:20 PM 53.2°F11.8°C 47.2°F8.4°C 80% 7.6 mph W12.2 kmh W 11.4 mph18.3 kmh 29.33 in993.2 mb 0.00 in0.0 mm 0.00 in0.0 mm 0.00 in0.0 mm
04:25 PM 53.4°F11.9°C 47.4°F8.6°C 80% 2.2 mph W3.5 kmh W 9.8 mph15.8 kmh 29.33 in993.2 mb 0.00 in0.0 mm 0.00 in0.0 mm 0.00 in0.0 mm
04:30 PM 53.6°F12.0°C 47.6°F8.7°C 80% 3.8 mph W6.1 kmh W 9.8 mph15.8 kmh 29.33 in993.2 mb 0.00 in0.0 mm 0.00 in0.0 mm 0.00 in0.0 mm
04:35 PM 53.6°F12.0°C 47.6°F8.7°C 80% 3.1 mph W5.0 kmh W 9.8 mph15.8 kmh 29.33 in993.2 mb 0.00 in0.0 mm 0.00 in0.0 mm 0.00 in0.0 mm
04:40 PM 53.8°F12.1°C 47.8°F8.8°C 80% 4.5 mph W7.2 kmh W 9.8 mph15.8 kmh 29.33 in993.2 mb 0.00 in0.0 mm 0.00 in0.0 mm 0.00 in0.0 mm
04:45 PM 53.8°F12.1°C 47.8°F8.8°C 80% 6.0 mph W9.7 kmh W 9.2 mph14.8 kmh 29.33 in993.2 mb 0.00 in0.0 mm 0.00 in0.0 mm 0.00 in0.0 mm
04:50 PM 53.6°F12.0°C 47.6°F8.7°C 80% 2.2 mph W3.5 kmh W 9.2 mph14.8 kmh 29.33 in993.2 mb 0.00 in0.0 mm 0.00 in0.0 mm 0.00 in0.0 mm
04:55 PM 54.0°F12.2°C 47.9°F8.8°C 80% 2.2 mph WNW3.5 kmh WNW 11.4 mph18.3 kmh 29.33 in993.2 mb 0.00 in0.0 mm 0.00 in0.0 mm 0.00 in0.0 mm
05:00 PM 54.7°F12.6°C 48.6°F9.2°C 80% 4.5 mph WNW7.2 kmh WNW 11.4 mph18.3 kmh 29.33 in993.2 mb 0.00 in0.0 mm 0.00 in0.0 mm 0.00 in0.0 mm
05:05 PM 55.0°F12.8°C 49.0°F9.4°C 80% 3.1 mph WNW5.0 kmh WNW 9.8 mph15.8 kmh 29.33 in993.2 mb 0.00 in0.0 mm 0.00 in0.0 mm 0.00 in0.0 mm
05:10 PM 55.6°F13.1°C 49.5°F9.7°C 80% 2.2 mph NW3.5 kmh NW 9.8 mph15.8 kmh 29.33 in993.2 mb 0.00 in0.0 mm 0.00 in0.0 mm 0.00 in0.0 mm
05:15 PM 55.8°F13.2°C 49.7°F9.8°C 80% 5.4 mph NW8.7 kmh NW 9.2 mph14.8 kmh 29.32 in992.9 mb 0.00 in0.0 mm 0.00 in0.0 mm 0.00 in0.0 mm
05:20 PM 56.1°F13.4°C 50.0°F10.0°C 80% 2.2 mph NW3.5 kmh NW 8.3 mph13.4 kmh 29.33 in993.2 mb 0.00 in0.0 mm 0.00 in0.0 mm 0.00 in0.0 mm
05:25 PM 57.2°F14.0°C 51.1°F10.6°C 80% 3.1 mph NW5.0 kmh NW 8.3 mph13.4 kmh 29.33 in993.2 mb 0.00 in0.0 mm 0.00 in0.0 mm 0.00 in0.0 mm
05:30 PM 58.1°F14.5°C 52.0°F11.1°C 80% 4.5 mph NW7.2 kmh NW 6.9 mph11.1 kmh 29.33 in993.2 mb 0.00 in0.0 mm 0.00 in0.0 mm 0.00 in0.0 mm
05:35 PM 58.3°F14.6°C 52.1°F11.2°C 80% 6.9 mph NW11.1 kmh NW 9.2 mph14.8 kmh 29.33 in993.2 mb 0.00 in0.0 mm 0.00 in0.0 mm 0.00 in0.0 mm
05:40 PM 56.3°F13.5°C 50.2°F10.1°C 80% 2.2 mph NW3.5 kmh NW 10.7 mph17.2 kmh 29.33 in993.2 mb 0.00 in0.0 mm 0.00 in0.0 mm 0.00 in0.0 mm
05:45 PM 56.1°F13.4°C 50.0°F10.0°C 80% 3.1 mph NW5.0 kmh NW 10.7 mph17.2 kmh 29.34 in993.6 mb 0.00 in0.0 mm 0.00 in0.0 mm 0.00 in0.0 mm
05:50 PM 55.9°F13.3°C 49.9°F9.9°C 80% 3.1 mph WNW5.0 kmh WNW 8.3 mph13.4 kmh 29.33 in993.2 mb 0.00 in0.0 mm 0.00 in0.0 mm 0.00 in0.0 mm
05:55 PM 55.9°F13.3°C 49.9°F9.9°C 80% 3.8 mph WNW6.1 kmh WNW 8.3 mph13.4 kmh 29.34 in993.6 mb 0.00 in0.0 mm 0.00 in0.0 mm 0.00 in0.0 mm
06:00 PM 55.9°F13.3°C 49.9°F9.9°C 80% 3.1 mph NE5.0 kmh NE 6.9 mph11.1 kmh 29.34 in993.6 mb 0.00 in0.0 mm 0.00 in0.0 mm 0.00 in0.0 mm
06:05 PM 56.3°F13.5°C 50.2°F10.1°C 80% 2.2 mph ENE3.5 kmh ENE 6.9 mph11.1 kmh 29.34 in993.6 mb 0.00 in0.0 mm 0.00 in0.0 mm 0.00 in0.0 mm
06:10 PM 56.3°F13.5°C 50.2°F10.1°C 80% 4.5 mph E7.2 kmh E 7.6 mph12.2 kmh 29.34 in993.6 mb 0.00 in0.0 mm 0.00 in0.0 mm 0.00 in0.0 mm
06:15 PM 56.5°F13.6°C 50.4°F10.2°C 80% 2.2 mph NE3.5 kmh NE 7.6 mph12.2 kmh 29.34 in993.6 mb 0.00 in0.0 mm 0.00 in0.0 mm 0.00 in0.0 mm
06:20 PM 55.6°F13.1°C 49.5°F9.7°C 80% 3.1 mph NE5.0 kmh NE 6.9 mph11.1 kmh 29.34 in993.6 mb 0.00 in0.0 mm 0.00 in0.0 mm 0.00 in0.0 mm
06:25 PM 55.6°F13.1°C 49.5°F9.7°C 80% 1.6 mph NE2.6 kmh NE 6.9 mph11.1 kmh 29.34 in993.6 mb 0.00 in0.0 mm 0.00 in0.0 mm 0.00 in0.0 mm
06:30 PM 54.9°F12.7°C 48.8°F9.3°C 80% 4.5 mph NE7.2 kmh NE 7.6 mph12.2 kmh 29.34 in993.6 mb 0.00 in0.0 mm 0.00 in0.0 mm 0.00 in0.0 mm
06:35 PM 54.5°F12.5°C 48.5°F9.2°C 80% 3.8 mph NE6.1 kmh NE 7.6 mph12.2 kmh 29.34 in993.6 mb 0.00 in0.0 mm 0.00 in0.0 mm 0.00 in0.0 mm
06:40 PM 54.3°F12.4°C 48.3°F9.1°C 80% 3.1 mph NE5.0 kmh NE 7.6 mph12.2 kmh 29.33 in993.2 mb 0.00 in0.0 mm 0.00 in0.0 mm 0.00 in0.0 mm
06:45 PM 54.3°F12.4°C 48.3°F9.1°C 80% 0.7 mph NE1.1 kmh NE 6.0 mph9.7 kmh 29.34 in993.6 mb 0.00 in0.0 mm 0.00 in0.0 mm 0.00 in0.0 mm
06:50 PM 54.1°F12.3°C 48.1°F8.9°C 80% 0.7 mph NE1.1 kmh NE 4.5 mph7.2 kmh 29.34 in993.6 mb 0.00 in0.0 mm 0.00 in0.0 mm 0.00 in0.0 mm
06:55 PM 54.1°F12.3°C 48.1°F8.9°C 80% 1.6 mph NE2.6 kmh NE 3.8 mph6.1 kmh 29.34 in993.6 mb 0.00 in0.0 mm 0.00 in0.0 mm 0.00 in0.0 mm
07:00 PM 54.5°F12.5°C 48.5°F9.2°C 80% 2.2 mph NE3.5 kmh NE 3.8 mph6.1 kmh 29.35 in993.9 mb 0.00 in0.0 mm 0.00 in0.0 mm 0.00 in0.0 mm
07:05 PM 55.4°F13.0°C 49.3°F9.6°C 80% 2.2 mph NE3.5 kmh NE 3.8 mph6.1 kmh 29.34 in993.6 mb 0.00 in0.0 mm 0.00 in0.0 mm 0.00 in0.0 mm
07:10 PM 55.9°F13.3°C 49.9°F9.9°C 80% 3.1 mph NE5.0 kmh NE 5.4 mph8.7 kmh 29.34 in993.6 mb 0.00 in0.0 mm 0.00 in0.0 mm 0.00 in0.0 mm
07:15 PM 55.0°F12.8°C 49.0°F9.4°C 80% 2.2 mph NE3.5 kmh NE 5.4 mph8.7 kmh 29.34 in993.6 mb 0.00 in0.0 mm 0.00 in0.0 mm 0.00 in0.0 mm
07:20 PM 54.7°F12.6°C 48.6°F9.2°C 80% 2.2 mph NE3.5 kmh NE 6.0 mph9.7 kmh 29.35 in993.9 mb 0.00 in0.0 mm 0.00 in0.0 mm 0.00 in0.0 mm
07:25 PM 54.1°F12.3°C 48.1°F8.9°C 80% 3.1 mph NE5.0 kmh NE 6.0 mph9.7 kmh 29.34 in993.6 mb 0.00 in0.0 mm 0.00 in0.0 mm 0.00 in0.0 mm
07:30 PM 53.6°F12.0°C 47.6°F8.7°C 80% 2.2 mph NE3.5 kmh NE 4.5 mph7.2 kmh 29.35 in993.9 mb 0.00 in0.0 mm 0.00 in0.0 mm 0.00 in0.0 mm
07:35 PM 53.1°F11.7°C 47.1°F8.4°C 80% 0.7 mph NE1.1 kmh NE 3.8 mph6.1 kmh 29.35 in993.9 mb 0.00 in0.0 mm 0.00 in0.0 mm 0.00 in0.0 mm
07:40 PM 52.3°F11.3°C 46.4°F8.0°C 80% 0.7 mph NE1.1 kmh NE 3.1 mph5.0 kmh 29.35 in993.9 mb 0.00 in0.0 mm 0.00 in0.0 mm 0.00 in0.0 mm
07:45 PM 52.0°F11.1°C 46.0°F7.8°C 80% Calm Calm 3.1 mph5.0 kmh 29.36 in994.2 mb 0.00 in0.0 mm 0.00 in0.0 mm 0.00 in0.0 mm
07:50 PM 51.6°F10.9°C 45.7°F7.6°C 80% Calm Calm 2.2 mph3.5 kmh 29.36 in994.2 mb 0.00 in0.0 mm 0.00 in0.0 mm 0.00 in0.0 mm
07:55 PM 51.4°F10.8°C 45.5°F7.5°C 80% 3.1 mph NE5.0 kmh NE 3.8 mph6.1 kmh 29.35 in993.9 mb 0.00 in0.0 mm 0.00 in0.0 mm 0.00 in0.0 mm
08:00 PM 50.7°F10.4°C 44.8°F7.1°C 80% 2.2 mph NE3.5 kmh NE 3.8 mph6.1 kmh 29.35 in993.9 mb 0.00 in0.0 mm 0.00 in0.0 mm 0.00 in0.0 mm
08:05 PM 50.2°F10.1°C 44.3°F6.8°C 80% 0.7 mph NE1.1 kmh NE 3.8 mph6.1 kmh 29.36 in994.2 mb 0.00 in0.0 mm 0.00 in0.0 mm 0.00 in0.0 mm
08:10 PM 50.0°F10.0°C 44.1°F6.7°C 80% 0.7 mph NE1.1 kmh NE 3.1 mph5.0 kmh 29.36 in994.2 mb 0.00 in0.0 mm 0.00 in0.0 mm 0.00 in0.0 mm
08:15 PM 49.6°F9.8°C 43.7°F6.5°C 80% Calm Calm 2.2 mph3.5 kmh 29.36 in994.2 mb 0.00 in0.0 mm 0.00 in0.0 mm 0.00 in0.0 mm
08:20 PM 49.3°F9.6°C 43.4°F6.3°C 80% 3.1 mph NE5.0 kmh NE 3.8 mph6.1 kmh 29.36 in994.2 mb 0.00 in0.0 mm 0.00 in0.0 mm 0.00 in0.0 mm
08:25 PM 48.4°F9.1°C 42.5°F5.8°C 80% 3.1 mph NE5.0 kmh NE 3.8 mph6.1 kmh 29.36 in994.2 mb 0.00 in0.0 mm 0.00 in0.0 mm 0.00 in0.0 mm
08:30 PM 47.5°F8.6°C 41.6°F5.3°C 80% 3.1 mph NE5.0 kmh NE 3.8 mph6.1 kmh 29.36 in994.2 mb 0.00 in0.0 mm 0.00 in0.0 mm 0.00 in0.0 mm
08:35 PM 46.9°F8.3°C 41.1°F5.1°C 80% Calm Calm 3.8 mph6.1 kmh 29.37 in994.6 mb 0.00 in0.0 mm 0.00 in0.0 mm 0.00 in0.0 mm
08:40 PM 46.9°F8.3°C 41.1°F5.1°C 80% 0.7 mph NE1.1 kmh NE 3.8 mph6.1 kmh 29.37 in994.6 mb 0.00 in0.0 mm 0.00 in0.0 mm 0.00 in0.0 mm
08:45 PM 46.6°F8.1°C 40.7°F4.8°C 80% 0.7 mph NE1.1 kmh NE 3.1 mph5.0 kmh 29.37 in994.6 mb 0.00 in0.0 mm 0.00 in0.0 mm 0.00 in0.0 mm
08:50 PM 46.4°F8.0°C 40.6°F4.8°C 80% 1.6 mph NE2.6 kmh NE 3.1 mph5.0 kmh 29.37 in994.6 mb 0.00 in0.0 mm 0.00 in0.0 mm 0.00 in0.0 mm
08:55 PM 46.2°F7.9°C 40.4°F4.7°C 80% 1.6 mph NE2.6 kmh NE 2.2 mph3.5 kmh 29.37 in994.6 mb 0.00 in0.0 mm 0.00 in0.0 mm 0.00 in0.0 mm
09:00 PM 46.0°F7.8°C 40.2°F4.6°C 80% 1.6 mph NE2.6 kmh NE 3.1 mph5.0 kmh 29.37 in994.6 mb 0.00 in0.0 mm 0.00 in0.0 mm 0.00 in0.0 mm
09:05 PM 45.9°F7.7°C 40.0°F4.4°C 80% 0.7 mph NE1.1 kmh NE 3.1 mph5.0 kmh 29.37 in994.6 mb 0.00 in0.0 mm 0.00 in0.0 mm 0.00 in0.0 mm
09:10 PM 45.9°F7.7°C 40.0°F4.4°C 80% 2.2 mph NE3.5 kmh NE 3.1 mph5.0 kmh 29.37 in994.6 mb 0.00 in0.0 mm 0.00 in0.0 mm 0.00 in0.0 mm
09:15 PM 45.7°F7.6°C 39.9°F4.4°C 80% 1.6 mph NE2.6 kmh NE 3.1 mph5.0 kmh 29.37 in994.6 mb 0.00 in0.0 mm 0.00 in0.0 mm 0.00 in0.0 mm
09:20 PM 45.7°F7.6°C 39.9°F4.4°C 80% 0.7 mph NE1.1 kmh NE 3.1 mph5.0 kmh 29.37 in994.6 mb 0.00 in0.0 mm 0.00 in0.0 mm 0.00 in0.0 mm
09:25 PM 45.7°F7.6°C 39.9°F4.4°C 80% Calm Calm 2.2 mph3.5 kmh 29.37 in994.6 mb 0.00 in0.0 mm 0.00 in0.0 mm 0.00 in0.0 mm
09:30 PM 45.5°F7.5°C 39.7°F4.3°C 80% Calm Calm 1.6 mph2.6 kmh 29.37 in994.6 mb 0.00 in0.0 mm 0.00 in0.0 mm 0.00 in0.0 mm
09:35 PM 45.3°F7.4°C 39.5°F4.2°C 80% Calm Calm 1.6 mph2.6 kmh 29.38 in994.9 mb 0.00 in0.0 mm 0.00 in0.0 mm 0.00 in0.0 mm
09:40 PM 45.1°F7.3°C 39.3°F4.1°C 80% 1.6 mph NE2.6 kmh NE 2.2 mph3.5 kmh 29.38 in994.9 mb 0.00 in0.0 mm 0.00 in0.0 mm 0.00 in0.0 mm
09:45 PM 45.0°F7.2°C 39.2°F4.0°C 80% 0.7 mph NE1.1 kmh NE 2.2 mph3.5 kmh 29.37 in994.6 mb 0.00 in0.0 mm 0.00 in0.0 mm 0.00 in0.0 mm
09:50 PM 45.0°F7.2°C 39.2°F4.0°C 80% 0.7 mph NE1.1 kmh NE 2.2 mph3.5 kmh 29.38 in994.9 mb 0.00 in0.0 mm 0.00 in0.0 mm 0.00 in0.0 mm
09:55 PM 44.8°F7.1°C 39.0°F3.9°C 80% Calm Calm 1.6 mph2.6 kmh 29.37 in994.6 mb 0.00 in0.0 mm 0.00 in0.0 mm 0.00 in0.0 mm
10:00 PM 44.8°F7.1°C 39.0°F3.9°C 80% Calm Calm 1.6 mph2.6 kmh 29.37 in994.6 mb 0.00 in0.0 mm 0.00 in0.0 mm 0.00 in0.0 mm
10:05 PM 44.8°F7.1°C 39.0°F3.9°C 80% Calm Calm 0.7 mph1.1 kmh 29.37 in994.6 mb 0.00 in0.0 mm 0.00 in0.0 mm 0.00 in0.0 mm
10:10 PM 44.6°F7.0°C 38.8°F3.8°C 80% 1.6 mph NE2.6 kmh NE 2.2 mph3.5 kmh 29.37 in994.6 mb 0.00 in0.0 mm 0.00 in0.0 mm 0.00 in0.0 mm
10:15 PM 44.8°F7.1°C 39.0°F3.9°C 80% 0.7 mph NE1.1 kmh NE 3.1 mph5.0 kmh 29.37 in994.6 mb 0.00 in0.0 mm 0.00 in0.0 mm 0.00 in0.0 mm
10:20 PM 44.6°F7.0°C 38.8°F3.8°C 80% 1.6 mph NE2.6 kmh NE 3.1 mph5.0 kmh 29.37 in994.6 mb 0.00 in0.0 mm 0.00 in0.0 mm 0.00 in0.0 mm
10:25 PM 44.6°F7.0°C 38.8°F3.8°C 80% Calm Calm 2.2 mph3.5 kmh 29.37 in994.6 mb 0.00 in0.0 mm 0.00 in0.0 mm 0.00 in0.0 mm
10:30 PM 44.4°F6.9°C 38.6°F3.7°C 80% Calm Calm 2.2 mph3.5 kmh 29.37 in994.6 mb 0.00 in0.0 mm 0.00 in0.0 mm 0.00 in0.0 mm
10:35 PM 44.2°F6.8°C 38.5°F3.6°C 80% 0.7 mph NE1.1 kmh NE 1.6 mph2.6 kmh 29.37 in994.6 mb 0.00 in0.0 mm 0.00 in0.0 mm 0.00 in0.0 mm
10:40 PM 44.1°F6.7°C 38.3°F3.5°C 80% Calm Calm 1.6 mph2.6 kmh 29.37 in994.6 mb 0.00 in0.0 mm 0.00 in0.0 mm 0.00 in0.0 mm
10:45 PM 44.1°F6.7°C 38.3°F3.5°C 80% Calm Calm 1.6 mph2.6 kmh 29.37 in994.6 mb 0.00 in0.0 mm 0.00 in0.0 mm 0.00 in0.0 mm
10:50 PM 44.2°F6.8°C 38.5°F3.6°C 80% Calm Calm -- 29.38 in994.9 mb 0.00 in0.0 mm 0.00 in0.0 mm 0.00 in0.0 mm
10:55 PM 44.2°F6.8°C 38.5°F3.6°C 80% Calm Calm 0.7 mph1.1 kmh 29.38 in994.9 mb 0.00 in0.0 mm 0.00 in0.0 mm 0.00 in0.0 mm
11:00 PM 44.4°F6.9°C 38.6°F3.7°C 80% Calm Calm 1.6 mph2.6 kmh 29.37 in994.6 mb 0.00 in0.0 mm 0.00 in0.0 mm 0.00 in0.0 mm
11:05 PM 44.4°F6.9°C 38.6°F3.7°C 80% Calm Calm 1.6 mph2.6 kmh 29.37 in994.6 mb 0.00 in0.0 mm 0.00 in0.0 mm 0.00 in0.0 mm
11:10 PM 44.2°F6.8°C 38.5°F3.6°C 80% Calm Calm -- 29.37 in994.6 mb 0.00 in0.0 mm 0.00 in0.0 mm 0.00 in0.0 mm
11:15 PM 44.2°F6.8°C 38.5°F3.6°C 80% Calm Calm -- 29.37 in994.6 mb 0.00 in0.0 mm 0.00 in0.0 mm 0.00 in0.0 mm
11:20 PM 44.2°F6.8°C 38.5°F3.6°C 80% 3.1 mph NE5.0 kmh NE 3.8 mph6.1 kmh 29.37 in994.6 mb 0.00 in0.0 mm 0.00 in0.0 mm 0.00 in0.0 mm
11:25 PM 44.2°F6.8°C 38.5°F3.6°C 80% 2.2 mph NE3.5 kmh NE 3.8 mph6.1 kmh 29.38 in994.9 mb 0.00 in0.0 mm 0.00 in0.0 mm 0.00 in0.0 mm
11:30 PM 44.2°F6.8°C 38.5°F3.6°C 80% 2.2 mph NE3.5 kmh NE 3.8 mph6.1 kmh 29.37 in994.6 mb 0.00 in0.0 mm 0.00 in0.0 mm 0.00 in0.0 mm
11:35 PM 44.2°F6.8°C 38.5°F3.6°C 80% 1.6 mph NE2.6 kmh NE 3.8 mph6.1 kmh 29.37 in994.6 mb 0.00 in0.0 mm 0.00 in0.0 mm 0.00 in0.0 mm
11:40 PM 44.2°F6.8°C 38.5°F3.6°C 80% 1.6 mph NE2.6 kmh NE 3.1 mph5.0 kmh 29.37 in994.6 mb 0.00 in0.0 mm 0.00 in0.0 mm 0.00 in0.0 mm
11:50 PM 44.2°F6.8°C 38.5°F3.6°C 80% 0.7 mph NE1.1 kmh NE 2.2 mph3.5 kmh 29.38 in994.9 mb 0.00 in0.0 mm 0.00 in0.0 mm 0.00 in0.0 mm
11:55 PM 44.4°F6.9°C 38.6°F3.7°C 80% Calm Calm 1.6 mph2.6 kmh 29.37 in994.6 mb 0.00 in0.0 mm 0.00 in0.0 mm 0.00 in0.0 mm